createdAt,value
2022-10-04T00:02:31.115Z,2.53
2022-10-04T00:05:21.861Z,2.28
2022-10-04T00:08:23.788Z,2.63
2022-10-04T00:11:18.386Z,2.50
2022-10-04T00:14:14.355Z,2.40
2022-10-04T00:17:10.507Z,1.98
2022-10-04T00:19:59.602Z,2.13
2022-10-04T00:23:29.709Z,2.38
2022-10-04T00:27:09.691Z,2.78
2022-10-04T00:30:24.016Z,2.67
2022-10-04T00:33:11.905Z,2.15
2022-10-04T00:36:00.037Z,2.35
2022-10-04T00:39:15.164Z,2.60
2022-10-04T00:42:14.305Z,2.40
2022-10-04T00:45:07.466Z,2.05
2022-10-04T00:48:12.324Z,2.25
2022-10-04T00:51:06.197Z,2.40
2022-10-04T00:54:05.696Z,2.97
2022-10-04T00:56:57.036Z,3.35
2022-10-04T00:59:47.775Z,3.88
2022-10-04T01:02:44.864Z,3.17
2022-10-04T01:05:37.314Z,3.70
2022-10-04T01:08:28.132Z,3.95
2022-10-04T01:11:19.024Z,3.03
2022-10-04T01:14:12.515Z,3.72
2022-10-04T01:17:00.421Z,2.83
2022-10-04T01:19:53.258Z,3.30
2022-10-04T01:22:49.560Z,2.63
2022-10-04T01:25:45.829Z,3.08
2022-10-04T01:28:36.921Z,2.97
2022-10-04T01:31:25.943Z,2.55
2022-10-04T01:34:16.606Z,2.97
2022-10-04T01:37:05.030Z,2.47
2022-10-04T01:39:54.748Z,2.70
2022-10-04T01:42:48.780Z,2.40
2022-10-04T01:45:40.860Z,2.45
2022-10-04T01:48:35.815Z,2.58
2022-10-04T01:51:27.673Z,2.60
2022-10-04T01:54:19.897Z,2.03
2022-10-04T01:57:14.907Z,2.83
2022-10-04T02:00:06.296Z,2.78
2022-10-04T02:02:58.577Z,2.03
2022-10-04T02:05:52.534Z,2.80
2022-10-04T02:08:47.009Z,2.35
2022-10-04T02:11:36.433Z,2.67
2022-10-04T02:14:29.206Z,2.58
2022-10-04T02:17:18.172Z,3.22
2022-10-04T02:20:14.186Z,2.55
2022-10-04T02:23:03.192Z,2.90
2022-10-04T02:25:51.913Z,3.10
2022-10-04T02:28:40.278Z,2.38
2022-10-04T02:31:55.746Z,1.90
2022-10-04T02:34:44.064Z,2.22
2022-10-04T02:37:32.377Z,2.80
2022-10-04T02:40:25.116Z,2.35
2022-10-04T02:43:18.026Z,2.33
2022-10-04T02:46:10.500Z,2.50
2022-10-04T02:49:02.291Z,2.90
2022-10-04T02:51:53.809Z,2.53
2022-10-04T02:54:45.833Z,2.70
2022-10-04T02:57:36.124Z,2.35
2022-10-04T03:00:26.936Z,2.42
2022-10-04T03:03:22.902Z,2.60
2022-10-04T03:06:15.930Z,2.88
2022-10-04T03:09:06.864Z,3.47
2022-10-04T03:11:55.986Z,3.03
2022-10-04T03:14:45.389Z,3.28
2022-10-04T03:17:33.666Z,3.50
2022-10-04T03:20:22.046Z,3.38
2022-10-04T03:23:13.995Z,3.78
2022-10-04T03:26:04.982Z,3.70
2022-10-04T03:28:53.129Z,3.38
2022-10-04T03:31:44.621Z,3.30
2022-10-04T03:34:37.295Z,3.85
2022-10-04T03:37:27.053Z,3.10
2022-10-04T03:40:16.422Z,3.85
2022-10-04T03:43:06.325Z,3.85
2022-10-04T03:45:54.856Z,3.53
2022-10-04T03:48:46.515Z,4.85
2022-10-04T03:51:35.085Z,4.00
2022-10-04T03:54:24.991Z,2.97
2022-10-04T03:57:14.390Z,3.00
2022-10-04T04:00:02.761Z,4.03
2022-10-04T04:03:03.137Z,3.00
2022-10-04T04:05:54.781Z,4.47
2022-10-04T04:08:45.512Z,3.08
2022-10-04T04:11:33.974Z,5.45
2022-10-04T04:14:27.036Z,3.72
2022-10-04T04:17:31.264Z,3.00
2022-10-04T04:20:26.966Z,3.33
2022-10-04T04:23:24.527Z,3.50
2022-10-04T04:26:21.687Z,4.43
2022-10-04T04:29:15.705Z,4.22
2022-10-04T04:32:07.179Z,3.88
2022-10-04T04:35:00.551Z,4.45
2022-10-04T04:38:03.482Z,3.33
2022-10-04T04:40:55.519Z,3.38
2022-10-04T04:43:45.159Z,3.42
2022-10-04T04:46:33.318Z,3.45
2022-10-04T04:49:23.720Z,3.17
2022-10-04T04:52:17.880Z,4.05
2022-10-04T04:55:07.887Z,3.90
2022-10-04T04:57:58.761Z,4.18
2022-10-04T05:00:51.314Z,4.50
2022-10-04T05:03:39.221Z,4.07
2022-10-04T05:06:30.797Z,4.38
2022-10-04T05:09:25.045Z,3.85
2022-10-04T05:12:18.647Z,4.10
2022-10-04T05:15:11.196Z,4.35
2022-10-04T05:17:59.430Z,4.40
2022-10-04T05:20:50.889Z,4.95
2022-10-04T05:23:40.230Z,4.85
2022-10-04T05:26:31.289Z,4.90
2022-10-04T05:29:22.260Z,4.90
2022-10-04T05:32:20.652Z,5.38
2022-10-04T05:35:17.602Z,4.45
2022-10-04T05:38:11.806Z,4.32
2022-10-04T05:41:07.698Z,5.07
2022-10-04T05:43:55.718Z,4.35
2022-10-04T05:46:46.857Z,4.45
2022-10-04T05:49:44.653Z,5.10
2022-10-04T05:52:35.999Z,5.80
2022-10-04T05:55:29.767Z,5.57
2022-10-04T05:58:36.039Z,5.60
2022-10-04T06:01:34.286Z,5.10
2022-10-04T06:04:45.338Z,5.55
2022-10-04T06:07:39.100Z,5.47
2022-10-04T06:10:55.854Z,5.15
2022-10-04T06:14:04.395Z,5.18
2022-10-04T06:17:11.470Z,4.82
2022-10-04T06:20:18.950Z,5.15
2022-10-04T06:23:14.427Z,6.28
2022-10-04T06:26:07.594Z,6.25
2022-10-04T06:29:04.051Z,5.43
2022-10-04T06:32:12.844Z,6.80
2022-10-04T06:35:14.936Z,7.13
2022-10-04T06:38:34.723Z,6.60
2022-10-04T06:41:38.156Z,7.55
2022-10-04T06:44:42.286Z,7.90
2022-10-04T06:47:51.344Z,8.07
2022-10-04T06:50:48.885Z,7.78
2022-10-04T06:53:46.714Z,7.60
2022-10-04T06:56:53.445Z,6.72
2022-10-04T06:59:57.528Z,5.47
2022-10-04T07:02:50.876Z,6.28
2022-10-04T07:05:46.369Z,5.95
2022-10-04T07:08:40.460Z,6.05
2022-10-04T07:11:33.594Z,6.38
2022-10-04T07:14:30.879Z,5.53
2022-10-04T07:17:25.089Z,6.75
2022-10-04T07:20:20.502Z,6.03
2022-10-04T07:23:16.033Z,6.22
2022-10-04T07:26:08.492Z,5.82
2022-10-04T07:29:19.284Z,6.25
2022-10-04T07:32:13.032Z,6.30
2022-10-04T07:35:06.956Z,6.13
2022-10-04T07:38:01.633Z,6.82
2022-10-04T07:41:04.178Z,6.28
2022-10-04T07:43:56.157Z,6.57
2022-10-04T07:46:50.767Z,5.75
2022-10-04T07:49:40.514Z,6.32
2022-10-04T07:52:45.550Z,6.50
2022-10-04T07:55:42.754Z,6.18
2022-10-04T07:58:46.389Z,5.80
2022-10-04T08:01:39.781Z,5.72
2022-10-04T08:04:36.780Z,6.20
2022-10-04T08:07:32.647Z,6.25
2022-10-04T08:10:31.229Z,6.32
2022-10-04T08:13:29.061Z,6.85
2022-10-04T08:16:26.146Z,7.13
2022-10-04T08:19:36.046Z,7.05
2022-10-04T08:22:34.660Z,6.70
2022-10-04T08:25:29.009Z,7.65
2022-10-04T08:28:48.173Z,7.10
2022-10-04T08:32:00.846Z,7.20
2022-10-04T08:35:19.559Z,6.50
2022-10-04T08:38:22.447Z,7.82
2022-10-04T08:41:55.664Z,7.43
2022-10-04T08:45:25.857Z,7.57
2022-10-04T08:49:01.010Z,7.82
2022-10-04T08:52:21.306Z,7.13
2022-10-04T08:55:55.177Z,6.90
2022-10-04T08:59:19.929Z,6.65
2022-10-04T09:02:44.332Z,6.47
2022-10-04T09:05:53.301Z,6.53
2022-10-04T09:09:09.302Z,6.13
2022-10-04T09:12:15.254Z,5.82
2022-10-04T09:15:22.068Z,5.75
2022-10-04T09:18:22.530Z,5.90
2022-10-04T09:21:14.068Z,7.25
2022-10-04T09:24:33.325Z,5.82
2022-10-04T09:27:54.693Z,5.43
2022-10-04T09:31:08.586Z,5.43
2022-10-04T09:34:12.516Z,5.60
2022-10-04T09:37:25.104Z,5.85
2022-10-04T09:41:01.946Z,6.00
2022-10-04T09:44:35.207Z,5.05
2022-10-04T09:47:45.639Z,5.55
2022-10-04T09:51:01.800Z,5.80
2022-10-04T09:54:05.465Z,5.68
2022-10-04T09:57:13.827Z,6.18
2022-10-04T10:00:22.186Z,5.22
2022-10-04T10:03:37.759Z,6.28
2022-10-04T10:06:41.581Z,4.85
2022-10-04T10:09:54.664Z,4.53
2022-10-04T10:13:28.858Z,5.28
2022-10-04T10:16:30.568Z,5.30
2022-10-04T10:20:04.432Z,5.18
2022-10-04T10:23:08.822Z,5.88
2022-10-04T10:26:22.800Z,6.38
2022-10-04T10:30:03.477Z,5.50
2022-10-04T10:33:21.319Z,5.32
2022-10-04T10:36:40.823Z,5.80
2022-10-04T10:40:06.797Z,5.07
2022-10-04T10:43:25.401Z,5.05
2022-10-04T10:46:25.469Z,4.35
2022-10-04T10:49:25.903Z,4.40
2022-10-04T10:52:51.720Z,4.50
2022-10-04T10:56:29.318Z,4.57
2022-10-04T11:00:02.547Z,4.72
2022-10-04T11:03:32.489Z,6.20
2022-10-04T11:06:45.779Z,7.22
2022-10-04T11:09:54.973Z,6.03
2022-10-04T11:13:02.795Z,5.20
2022-10-04T11:16:08.163Z,4.65
2022-10-04T11:19:47.453Z,4.63
2022-10-04T11:23:07.325Z,4.35
2022-10-04T11:26:11.910Z,4.80
2022-10-04T11:29:12.254Z,4.78
2022-10-04T11:32:41.000Z,4.85
2022-10-04T11:35:45.915Z,3.47
2022-10-04T11:38:58.805Z,3.70
2022-10-04T11:41:54.073Z,3.03
2022-10-04T11:45:20.278Z,3.17
2022-10-04T11:48:23.415Z,3.53
2022-10-04T11:51:35.097Z,2.97
2022-10-04T11:54:57.731Z,2.63
2022-10-04T11:57:51.525Z,2.67
2022-10-04T12:00:59.284Z,2.40
2022-10-04T12:04:06.164Z,2.50
2022-10-04T12:07:08.482Z,2.63
2022-10-04T12:10:04.342Z,2.70
2022-10-04T12:13:16.942Z,2.47
2022-10-04T12:16:30.435Z,2.63
2022-10-04T12:19:54.994Z,2.63
2022-10-04T12:23:01.245Z,2.95
2022-10-04T12:25:58.425Z,2.00
2022-10-04T12:29:05.008Z,2.58
2022-10-04T12:31:58.747Z,2.33
2022-10-04T12:34:58.054Z,2.88
2022-10-04T12:38:22.597Z,2.92
2022-10-04T12:41:25.198Z,2.75
2022-10-04T12:44:27.366Z,2.78
2022-10-04T12:47:45.844Z,2.80
2022-10-04T12:50:48.313Z,2.90
2022-10-04T12:53:47.614Z,2.75
2022-10-04T12:56:47.013Z,2.78
2022-10-04T12:59:50.328Z,2.70
2022-10-04T13:03:02.447Z,2.88
2022-10-04T13:06:02.899Z,2.40
2022-10-04T13:09:02.837Z,2.75
2022-10-04T13:12:14.020Z,3.45
2022-10-04T13:15:14.146Z,2.58
2022-10-04T13:18:09.863Z,2.80
2022-10-04T13:21:03.166Z,2.63
2022-10-04T13:23:59.575Z,2.60
2022-10-04T13:26:55.927Z,2.42
2022-10-04T13:29:53.782Z,2.92
2022-10-04T13:32:49.727Z,3.30
2022-10-04T13:35:44.451Z,2.97
2022-10-04T13:38:48.234Z,3.05
2022-10-04T13:41:55.048Z,2.80
2022-10-04T13:45:18.516Z,2.80
2022-10-04T13:48:24.104Z,2.58
2022-10-04T13:51:33.876Z,2.80
2022-10-04T13:54:50.580Z,2.53
2022-10-04T13:57:44.050Z,2.30
2022-10-04T14:00:53.375Z,2.45
2022-10-04T14:03:50.986Z,2.50
2022-10-04T14:07:03.470Z,2.60
2022-10-04T14:10:04.799Z,2.67
2022-10-04T14:13:33.197Z,3.00
2022-10-04T14:16:45.695Z,2.47
2022-10-04T14:20:30.036Z,2.10
2022-10-04T14:23:52.072Z,2.42
2022-10-04T14:27:05.991Z,2.03
2022-10-04T14:30:07.572Z,2.30
2022-10-04T14:33:34.236Z,2.30
2022-10-04T14:36:40.974Z,3.10
2022-10-04T14:40:06.433Z,2.25
2022-10-04T14:43:14.749Z,2.17
2022-10-04T14:46:18.963Z,2.28
2022-10-04T14:49:19.460Z,2.25
2022-10-04T14:52:23.662Z,2.47
2022-10-04T14:55:31.051Z,2.10
2022-10-04T14:58:32.933Z,2.42
2022-10-04T15:01:22.691Z,2.20
2022-10-04T15:04:20.973Z,2.40
2022-10-04T15:07:19.556Z,2.45
2022-10-04T15:10:13.518Z,2.50
2022-10-04T15:13:10.959Z,2.63
2022-10-04T15:16:14.160Z,2.30
2022-10-04T15:19:06.629Z,2.03
2022-10-04T15:22:05.761Z,2.97
2022-10-04T15:24:55.049Z,2.35
2022-10-04T15:27:52.496Z,2.75
2022-10-04T15:30:56.567Z,9.90
2022-10-04T15:33:56.502Z,3.10
2022-10-04T15:37:03.644Z,2.97
2022-10-04T15:40:32.940Z,2.80
2022-10-04T15:43:25.737Z,2.28
2022-10-04T15:46:38.547Z,2.40
2022-10-04T15:49:39.807Z,2.40
2022-10-04T15:52:52.874Z,2.65
2022-10-04T15:56:02.695Z,2.97
2022-10-04T15:59:27.701Z,2.55
2022-10-04T16:02:53.477Z,2.75
2022-10-04T16:05:47.870Z,2.10
2022-10-04T16:08:53.572Z,3.00
2022-10-04T16:11:57.749Z,3.83
2022-10-04T16:15:19.248Z,3.22
2022-10-04T16:18:30.764Z,3.22
2022-10-04T16:21:31.613Z,2.70
2022-10-04T16:24:51.173Z,3.15
2022-10-04T16:27:57.387Z,3.20
2022-10-04T16:31:09.257Z,3.20
2022-10-04T16:34:03.630Z,2.90
2022-10-04T16:36:59.102Z,3.13
2022-10-04T16:40:06.508Z,3.05
2022-10-04T16:42:59.466Z,3.13
2022-10-04T16:46:07.332Z,2.80
2022-10-04T16:48:58.080Z,3.03
2022-10-04T16:51:57.604Z,3.15
2022-10-04T16:55:02.242Z,3.25
2022-10-04T16:58:23.421Z,3.22
2022-10-04T17:01:38.355Z,2.92
2022-10-04T17:04:42.590Z,3.28
2022-10-04T17:07:43.514Z,4.53
2022-10-04T17:10:41.087Z,3.78
2022-10-04T17:13:35.321Z,3.97
2022-10-04T17:16:30.146Z,3.67
2022-10-04T17:19:30.799Z,4.03
2022-10-04T17:22:28.734Z,3.38
2022-10-04T17:25:28.616Z,5.95
2022-10-04T17:28:29.134Z,4.07
2022-10-04T17:31:25.944Z,3.50
2022-10-04T17:34:22.768Z,3.65
2022-10-04T17:37:21.754Z,5.40
2022-10-04T17:40:28.584Z,4.40
2022-10-04T17:43:25.002Z,4.47
2022-10-04T17:46:19.239Z,4.45
2022-10-04T17:49:34.285Z,4.95
2022-10-04T17:52:45.500Z,6.15
2022-10-04T17:55:47.620Z,5.32
2022-10-04T17:58:44.449Z,6.13
2022-10-04T18:01:36.672Z,7.70
2022-10-04T18:04:29.023Z,6.40
2022-10-04T18:07:22.187Z,8.30
2022-10-04T18:10:23.777Z,12.95
2022-10-04T18:13:20.084Z,7.20
2022-10-04T18:16:16.128Z,6.03
2022-10-04T18:19:31.311Z,6.30
2022-10-04T18:22:20.920Z,8.77
2022-10-04T18:25:16.220Z,6.47
2022-10-04T18:28:15.026Z,8.55
2022-10-04T18:31:21.669Z,7.55
2022-10-04T18:34:19.560Z,9.00
2022-10-04T18:37:20.783Z,6.90
2022-10-04T18:40:17.402Z,6.15
2022-10-04T18:43:26.803Z,7.80
2022-10-04T18:46:17.115Z,6.18
2022-10-04T18:49:16.347Z,4.75
2022-10-04T18:52:17.037Z,6.10
2022-10-04T18:55:17.686Z,6.32
2022-10-04T18:58:40.095Z,4.78
2022-10-04T19:01:59.171Z,5.55
2022-10-04T19:04:54.778Z,5.35
2022-10-04T19:07:52.336Z,4.22
2022-10-04T19:10:45.142Z,4.55
2022-10-04T19:13:41.845Z,4.32
2022-10-04T19:16:41.682Z,9.68
2022-10-04T19:19:43.135Z,5.05
2022-10-04T19:22:44.772Z,5.32
2022-10-04T19:25:39.092Z,5.82
2022-10-04T19:28:29.797Z,4.80
2022-10-04T19:31:24.269Z,5.30
2022-10-04T19:34:19.211Z,6.03
2022-10-04T19:37:11.647Z,5.43
2022-10-04T19:40:07.333Z,4.07
2022-10-04T19:43:05.057Z,5.38
2022-10-04T19:46:11.602Z,5.28
2022-10-04T19:48:59.567Z,4.97
2022-10-04T19:51:53.285Z,5.57
2022-10-04T19:54:41.262Z,4.80
2022-10-04T19:57:37.446Z,4.95
2022-10-04T20:00:25.409Z,4.40
2022-10-04T20:03:13.909Z,4.53
2022-10-04T20:06:03.995Z,5.13
2022-10-04T20:09:01.460Z,5.15
2022-10-04T20:11:52.217Z,4.28
2022-10-04T20:14:46.904Z,5.13
2022-10-04T20:17:34.855Z,4.93
2022-10-04T20:20:55.989Z,4.70
2022-10-04T20:23:56.712Z,4.30
2022-10-04T20:26:54.455Z,5.47
2022-10-04T20:30:04.110Z,4.30
2022-10-04T20:33:00.027Z,5.18
2022-10-04T20:36:09.917Z,4.68
2022-10-04T20:39:01.897Z,4.05
2022-10-04T20:42:22.796Z,3.97
2022-10-04T20:45:25.820Z,5.25
2022-10-04T20:48:18.811Z,4.53
2022-10-04T20:51:09.611Z,4.40
2022-10-04T20:53:57.572Z,4.55
2022-10-04T20:56:48.754Z,4.03
2022-10-04T20:59:38.161Z,4.55
2022-10-04T21:02:28.478Z,5.05
2022-10-04T21:05:23.454Z,5.38
2022-10-04T21:08:16.459Z,4.50
2022-10-04T21:11:19.117Z,4.35
2022-10-04T21:14:23.477Z,4.18
2022-10-04T21:17:36.187Z,4.53
2022-10-04T21:20:42.840Z,5.15
2022-10-04T21:23:33.541Z,5.38
2022-10-04T21:26:23.422Z,5.20
2022-10-04T21:29:11.282Z,6.18
2022-10-04T21:31:59.255Z,4.90
2022-10-04T21:34:53.509Z,5.68
2022-10-04T21:37:42.045Z,5.13
2022-10-04T21:40:29.991Z,4.85
2022-10-04T21:43:17.881Z,4.55
2022-10-04T21:46:05.954Z,5.05
2022-10-04T21:48:53.921Z,4.90
2022-10-04T21:51:43.215Z,4.43
2022-10-04T21:54:31.167Z,4.68
2022-10-04T21:57:19.232Z,4.10
2022-10-04T22:00:08.617Z,5.13
2022-10-04T22:03:00.167Z,4.53
2022-10-04T22:05:48.072Z,4.40
2022-10-04T22:08:37.271Z,4.35
2022-10-04T22:11:25.272Z,4.45
2022-10-04T22:14:13.145Z,4.35
2022-10-04T22:17:01.277Z,5.18
2022-10-04T22:19:49.788Z,4.30
2022-10-04T22:22:40.020Z,4.93
2022-10-04T22:25:29.497Z,4.75
2022-10-04T22:28:21.786Z,4.90
2022-10-04T22:31:12.716Z,4.85
2022-10-04T22:34:00.664Z,5.28
2022-10-04T22:36:51.328Z,4.78
2022-10-04T22:39:39.718Z,5.47
2022-10-04T22:42:32.452Z,4.90
2022-10-04T22:45:23.619Z,4.75
2022-10-04T22:48:15.189Z,4.72
2022-10-04T22:51:03.065Z,4.72
2022-10-04T22:53:51.019Z,4.20
2022-10-04T22:56:39.787Z,4.70
2022-10-04T22:59:39.656Z,4.97
2022-10-04T23:02:31.305Z,4.70
2022-10-04T23:05:20.925Z,4.68
2022-10-04T23:08:08.846Z,5.13
2022-10-04T23:10:58.005Z,4.63
2022-10-04T23:13:45.885Z,4.78
2022-10-04T23:16:35.246Z,4.25
2022-10-04T23:19:23.293Z,4.32
2022-10-04T23:22:17.588Z,4.60
2022-10-04T23:25:14.721Z,4.45
2022-10-04T23:28:06.775Z,4.50
2022-10-04T23:31:02.894Z,4.45
2022-10-04T23:33:53.439Z,4.30
2022-10-04T23:36:41.358Z,4.50
2022-10-04T23:39:33.699Z,4.60
2022-10-04T23:42:36.878Z,4.47
2022-10-04T23:45:26.241Z,4.47
2022-10-04T23:48:22.659Z,5.05
2022-10-04T23:51:13.009Z,5.35
2022-10-04T23:54:00.995Z,4.90
2022-10-04T23:56:49.446Z,4.80
2022-10-04T23:59:39.661Z,5.30
